Flight Track Log - Related Links

Times and Time Zones

All times are in EDT time to prevent confusion due to time zone crossing. See the EJA646 flight status page for this flight to view local times or setup timezone preferences in your user account.

Time Position Orientation Groundspeed Altitude Reporting Facility
EDT Latitude Longitude Course Direction KTS MPH feet Rate Location/Type
Thu 12:23:12 PM 39.0564 -77.5217 North 258 297 7,800  Level Washington Center
Thu 12:24:12 PM 39.1342 -77.4728 26° Northeast 263 303 9,000 650 Climbing Washington Center
Thu 12:25:12 PM 39.1817 -77.3775 57° Northeast 271 312 9,100 200 Climbing Washington Center
Thu 12:26:12 PM 39.2267 -77.2794 59° Northeast 286 329 9,400 1,200 Climbing Washington Center
Thu 12:27:00 PM 39.3196 -76.9648 104° East  Level FlightAware Approximate
Thu 12:27:12 PM 39.2739 -77.1733 60° Northeast 315 362 11,500  Level Washington Center
Thu 12:28:12 PM 39.3233 -77.0564 61° Northeast 342 394 13,800 1,750 Climbing Washington Center
Thu 12:29:12 PM 39.3122 -76.9381 97° East 334 384 15,000 650 Climbing Washington Center
Thu 12:30:12 PM 39.2883 -76.8278 106° East 319 367 15,100 500 Climbing Washington Center
Thu 12:31:12 PM 39.2644 -76.7175 106° East 309 356 16,000 504 Climbing Washington Center
Thu 12:32:11 PM 39.2364 -76.6100 109° East 314 361 16,100 50 Climbing Washington Center
Thu 12:33:12 PM 39.2122 -76.4997 106° East 319 367 16,100  Level Washington Center
Thu 12:34:12 PM 39.1839 -76.3894 108° East 324 373 16,100  Level Washington Center
Thu 12:35:11 PM 39.1614 -76.2769 104° East 324 373 16,100  Level Washington Center
Thu 12:36:12 PM 39.1994 -76.1728 65° Northeast 295 339 16,100 -50 Level Washington Center
Thu 12:37:12 PM 39.2667 -76.0983 41° Northeast 310 357 16,000 -50 Descending Washington Center
Thu 12:38:11 PM 39.3461 -76.0236 36° Northeast 319 367 16,000 66 Level Washington Center
Thu 12:38:43 PM 39.3958 -75.9733 38° Northeast 391 450 16,100 113 Climbing FAA TRACON SMA TRACON (SMA)
Thu 12:39:04 PM 39.4228 -75.9469 37° Northeast 393 452 16,100  Level FAA TRACON SMA TRACON (SMA)
Thu 12:39:24 PM 39.4572 -75.9144 36° Northeast 396 456 16,100  Level FAA TRACON SMA TRACON (SMA)
Thu 12:39:44 PM 39.4847 -75.8881 37° Northeast 398 458 16,100 -150 Level FAA TRACON SMA TRACON (SMA)
Thu 12:40:04 PM 39.5125 -75.8617 36° Northeast 397 457 16,000  Descending FAA TRACON SMA TRACON (SMA)
Thu 12:40:23 PM 39.5458 -75.8303 36° Northeast 392 451 16,100  Climbing FAA TRACON SMA TRACON (SMA)
Thu 12:40:44 PM 39.5717 -75.8056 36° Northeast 390 449 16,000 -146 Descending FAA TRACON SMA TRACON (SMA)
Thu 12:41:04 PM 39.5994 -75.7797 36° Northeast 388 447 16,000  Level FAA TRACON SMA TRACON (SMA)
Thu 12:41:24 PM 39.6325 -75.7494 35° Northeast 387 445 16,000 -450 Level FAA TRACON SMA TRACON (SMA)
Thu 12:41:44 PM 39.6597 -75.7233 36° Northeast 387 445 15,700 -1,538 Descending FAA TRACON SMA TRACON (SMA)
Thu 12:42:03 PM 39.6872 -75.6994 34° Northeast 386 444 15,000 -2,308 Descending FAA TRACON SMA TRACON (SMA)
Thu 12:42:23 PM 39.7214 -75.6683 35° Northeast 387 445 14,200 -2,100 Descending FAA TRACON SMA TRACON (SMA)
Thu 12:42:43 PM 39.7481 -75.6444 35° Northeast 378 435 13,600 -1,610 Descending FAA TRACON SMA TRACON (SMA)
Thu 12:43:04 PM 39.7769 -75.6164 37° Northeast 354 407 13,100 -900 Descending FAA TRACON SMA TRACON (SMA)
Thu 12:43:23 PM 39.8033 -75.5928 35° Northeast 361 415 13,000 -154 Descending FAA TRACON SMA TRACON (SMA)
Thu 12:43:43 PM 39.8297 -75.5689 35° Northeast 372 428 13,000  Level FAA TRACON SMA TRACON (SMA)
Thu 12:44:04 PM 39.8558 -75.5444 36° Northeast 373 429 13,000  Level FAA TRACON SMA TRACON (SMA)
Thu 12:44:23 PM 39.8892 -75.5139 35° Northeast 377 434 13,000  Level FAA TRACON SMA TRACON (SMA)
Thu 12:44:44 PM 39.9161 -75.4889 35° Northeast 381 438 13,000  Level FAA TRACON SMA TRACON (SMA)
Thu 12:45:04 PM 39.9433 -75.4633 36° Northeast 386 444 13,000  Level FAA TRACON SMA TRACON (SMA)
Thu 12:45:24 PM 39.9761 -75.4331 35° Northeast 385 443 13,000  Level FAA TRACON SMA TRACON (SMA)
Thu 12:45:43 PM 40.0039 -75.4078 35° Northeast 381 438 13,000  Level FAA TRACON SMA TRACON (SMA)
Thu 12:46:04 PM 40.0303 -75.3831 36° Northeast 378 435 13,000  Level FAA TRACON SMA TRACON (SMA)
Thu 12:46:24 PM 40.0567 -75.3583 36° Northeast 377 434 13,000  Level FAA TRACON SMA TRACON (SMA)
Thu 12:46:44 PM 40.0886 -75.3281 36° Northeast 376 433 13,000  Level FAA TRACON SMA TRACON (SMA)
Thu 12:47:04 PM 40.1156 -75.3033 35° Northeast 374 430 13,000  Level FAA TRACON SMA TRACON (SMA)
Thu 12:47:24 PM 40.1403 -75.2797 36° Northeast 363 418 13,000  Level FAA TRACON SMA TRACON (SMA)
Thu 12:47:44 PM 40.1714 -75.2511 35° Northeast 356 410 13,000 -450 Level FAA TRACON SMA TRACON (SMA)
Thu 12:48:04 PM 40.1964 -75.2275 36° Northeast 359 413 12,700 -1,650 Descending FAA TRACON SMA TRACON (SMA)
Thu 12:48:24 PM 40.2211 -75.2047 35° Northeast 354 407 11,900 -2,400 Descending FAA TRACON SMA TRACON (SMA)
Thu 12:48:44 PM 40.2494 -75.1789 35° Northeast 329 379 11,100 -1,500 Descending FAA TRACON SMA TRACON (SMA)
Thu 12:49:04 PM 40.2706 -75.1575 38° Northeast 313 360 10,900 -900 Descending FAA TRACON SMA TRACON (SMA)
Thu 12:49:24 PM 40.2944 -75.1361 34° Northeast 321 369 10,500 -1,950 Descending FAA TRACON SMA TRACON (SMA)
Thu 12:49:44 PM 40.3214 -75.1092 37° Northeast 329 379 9,600 -2,400 Descending FAA TRACON SMA TRACON (SMA)
Thu 12:50:04 PM 40.3419 -75.0825 45° Northeast 317 365 8,900 -2,093 Descending FAA TRACON SMA TRACON (SMA)
Thu 12:50:27 PM 40.3597 -75.0569 48° Northeast 313 360 8,100 -2,372 Descending FAA TRACON SMA TRACON (SMA)
Thu 12:50:47 PM 40.3844 -75.0242 45° Northeast 304 350 7,200 -1,784 Descending FAA TRACON SMA TRACON (SMA)
Thu 12:51:04 PM 40.3997 -75.0014 49° Northeast 305 351 7,000 -649 Descending FAA TRACON SMA TRACON (SMA)
Thu 12:51:24 PM 40.4172 -74.9764 47° Northeast 304 350 6,800 -1,350 Descending FAA TRACON SMA TRACON (SMA)
Thu 12:51:44 PM 40.4392 -74.9456 47° Northeast 302 348 6,100 -2,100 Descending FAA TRACON SMA TRACON (SMA)
Thu 12:52:04 PM 40.4564 -74.9214 47° Northeast 300 345 5,400 -1,950 Descending FAA TRACON SMA TRACON (SMA)
Thu 12:52:24 PM 40.4739 -74.8967 47° Northeast 298 343 4,800 -1,950 Descending FAA TRACON SMA TRACON (SMA)
Thu 12:52:44 PM 40.4950 -74.8664 47° Northeast 295 339 4,100 -1,231 Descending FAA TRACON SMA TRACON (SMA)
Thu 12:53:03 PM 40.5167 -74.8500 30° Northeast 290 334 4,000 -76 Descending New York TRACON
Thu 12:54:03 PM 40.5667 -74.7667 52° Northeast 275 316 4,000  Level New York TRACON
Thu 12:55:08 PM 40.6333 -74.7000 37° Northeast 286 329 4,000  Level New York TRACON
Thu 12:56:09 PM 40.7000 -74.6667 21° North 296 341 4,000  Level New York TRACON
Thu 12:57:03 PM 40.7667 -74.6167 30° Northeast 295 339 4,000 -474 Level New York TRACON
Thu 12:58:03 PM 40.8500 -74.5833 17° North 280 322 3,100 -500 Descending New York TRACON
Thu 12:59:03 PM 40.9167 -74.5333 30° Northeast 270 311 3,000 -48 Descending New York TRACON
Thu 01:00:09 PM 40.9833 -74.5000 21° North 269 310 3,000  Level New York TRACON
Thu 01:01:03 PM 41.0500 -74.4500 29° Northeast 261 300 3,000  Level New York TRACON
Thu 01:02:03 PM 41.0667 -74.3667 75° East 232 267 3,000  Level New York TRACON
Thu 01:03:03 PM 41.0667 -74.3000 90° East 193 222 3,000  Level New York TRACON
Thu 01:04:03 PM 41.0500 -74.2333 108° East 190 219 3,000 -450 Level New York TRACON
Thu 01:05:03 PM 41.0333 -74.1667 108° East 185 213 2,100 -500 Descending New York TRACON
Thu 01:06:03 PM 41.0167 -74.1000 108° East 180 207 2,000 -50 Descending New York TRACON
Thu 01:07:03 PM 40.9833 -74.0500 131° Southeast 189 217 2,000 -150 Level New York TRACON
Thu 01:08:03 PM 40.9333 -74.0500 180° South 178 205 1,700 -550 Descending New York TRACON
Thu 01:09:03 PM 40.9000 -74.0500 180° South 143 165 900 -800 Descending New York TRACON

Login

Don't have an account? Register now (free) for customized features, flight alerts, and more!